Time;durP1;ratioP1;P1;durP2;ratioP2;P2;SDS_P1;SDS_P2;PMS_P1;PMS_P2;Temp;Humidity;BMP_temperature;BMP_pressure;BME280_temperature;BME280_humidity;BME280_pressure;Samples;Min_cycle;Max_cycle;Signal;HPM_P1;HPM_P2
2021/07/25 00:00:55;;;;;;;1.50;1.13;;;18.70;82.20;;;;;;5035818;28;20152;-74
2021/07/25 00:03:23;;;;;;;1.88;1.40;;;18.70;82.00;;;;;;5038144;28;20063;-74
2021/07/25 00:05:49;;;;;;;1.50;1.13;;;18.60;82.20;;;;;;5038166;28;20055;-74
2021/07/25 00:08:14;;;;;;;1.95;0.98;;;18.50;82.70;;;;;;5042431;28;20036;-75
2021/07/25 00:10:46;;;;;;;1.92;1.00;;;18.50;82.20;;;;;;5058006;28;20028;-74
2021/07/25 00:13:12;;;;;;;1.33;0.90;;;18.50;81.90;;;;;;5057855;28;20029;-74
2021/07/25 00:15:39;;;;;;;2.75;1.10;;;18.50;81.70;;;;;;5057707;28;20075;-74
2021/07/25 00:18:05;;;;;;;1.48;1.10;;;18.50;81.60;;;;;;5055267;28;20082;-74
2021/07/25 00:20:41;;;;;;;1.83;1.15;;;18.50;81.70;;;;;;5057725;28;20021;-74
2021/07/25 00:23:07;;;;;;;1.10;0.90;;;18.50;81.60;;;;;;5057818;28;20029;-74
2021/07/25 00:25:34;;;;;;;1.30;1.00;;;18.50;81.50;;;;;;5047523;28;20032;-74
2021/07/25 00:28:00;;;;;;;1.42;0.98;;;18.50;81.50;;;;;;5036428;28;20037;-74
2021/07/25 00:30:26;;;;;;;1.13;0.88;;;18.50;81.50;;;;;;5049879;28;20033;-74
2021/07/25 00:32:52;;;;;;;1.25;0.80;;;18.40;81.50;;;;;;5057197;28;20053;-74
2021/07/25 00:35:18;;;;;;;2.03;1.20;;;18.30;82.10;;;;;;5057407;28;20048;-74
2021/07/25 00:37:48;;;;;;;1.50;0.85;;;18.30;82.00;;;;;;5056166;28;20071;-75
2021/07/25 00:40:41;;;;;;;1.40;0.90;;;18.50;81.80;;;;;;5057522;28;20071;-75
2021/07/25 00:43:09;;;;;;;1.80;0.95;;;18.40;81.70;;;;;;5057318;28;20270;-74
2021/07/25 00:45:37;;;;;;;1.98;0.70;;;18.40;81.50;;;;;;5055575;28;20033;-75
2021/07/25 00:48:04;;;;;;;1.00;0.80;;;18.50;81.40;;;;;;5055575;28;20036;-74
2021/07/25 00:50:29;;;;;;;0.82;0.70;;;18.50;81.50;;;;;;5057213;28;20151;-74
2021/07/25 00:52:55;;;;;;;1.38;0.75;;;18.50;81.50;;;;;;5050119;28;20052;-74
2021/07/25 00:55:21;;;;;;;0.77;0.60;;;18.60;81.20;;;;;;5039659;28;20078;-74
2021/07/25 00:57:48;;;;;;;1.50;0.65;;;18.60;80.90;;;;;;5055645;28;20025;-74
2021/07/25 01:00:17;;;;;;;1.10;0.70;;;18.50;81.10;;;;;;5055571;28;20483;-74
2021/07/25 01:03:21;;;;;;;0.85;0.60;;;18.50;80.50;;;;;;5056934;28;20063;-74
2021/07/25 01:05:59;;;;;;;1.55;0.70;;;18.40;81.30;;;;;;5034007;28;20857;-74
2021/07/25 01:08:37;;;;;;;1.08;0.70;;;18.50;80.80;;;;;;5017130;28;20096;-74
2021/07/25 01:11:04;;;;;;;1.15;0.80;;;18.40;81.00;;;;;;5017170;28;20026;-74
2021/07/25 01:13:35;;;;;;;0.93;0.73;;;18.50;80.80;;;;;;5047465;28;20025;-74
2021/07/25 01:16:02;;;;;;;1.20;0.80;;;18.60;80.90;;;;;;5055507;28;20025;-74
2021/07/25 01:18:27;;;;;;;1.20;0.77;;;18.60;81.00;;;;;;5056626;28;20406;-74
2021/07/25 01:20:55;;;;;;;1.55;0.82;;;18.60;81.00;;;;;;5041385;28;20037;-74
2021/07/25 01:23:22;;;;;;;1.27;0.63;;;18.60;80.70;;;;;;5036564;28;20029;-74
2021/07/25 01:25:52;;;;;;;1.63;0.80;;;18.60;80.80;;;;;;5035074;28;20095;-74
2021/07/25 01:28:23;;;;;;;1.60;0.82;;;18.60;81.20;;;;;;5036470;28;20559;-74
2021/07/25 01:31:01;;;;;;;1.50;0.93;;;18.50;81.40;;;;;;5031235;28;20030;-74
2021/07/25 01:33:30;;;;;;;0.98;0.80;;;18.50;80.80;;;;;;5015036;28;20046;-74
2021/07/25 01:35:57;;;;;;;1.10;0.80;;;18.60;80.80;;;;;;5035363;28;20116;-74
2021/07/25 01:38:28;;;;;;;1.00;0.80;;;18.50;81.00;;;;;;5036319;28;20022;-74
2021/07/25 01:41:07;;;;;;;1.15;0.73;;;18.50;81.40;;;;;;5036255;28;20029;-74
2021/07/25 01:43:38;;;;;;;0.85;0.63;;;18.60;80.60;;;;;;5036276;28;20028;-74
2021/07/25 01:46:06;;;;;;;1.55;0.95;;;18.50;80.60;;;;;;5036026;28;20033;-74
2021/07/25 01:48:32;;;;;;;1.15;0.80;;;18.60;80.40;;;;;;5036086;28;20025;-74
2021/07/25 01:50:59;;;;;;;1.30;0.90;;;18.70;80.30;;;;;;5036376;28;20036;-74
2021/07/25 01:53:25;;;;;;;1.65;0.90;;;18.60;80.60;;;;;;5043607;28;20025;-74
2021/07/25 01:55:50;;;;;;;1.20;0.75;;;18.70;80.60;;;;;;5036187;28;20389;-74
2021/07/25 01:58:16;;;;;;;1.00;0.70;;;18.50;80.80;;;;;;5042131;28;20024;-74
2021/07/25 02:00:42;;;;;;;1.13;0.88;;;18.60;80.80;;;;;;5054584;28;20021;-74
2021/07/25 02:03:07;;;;;;;1.85;1.00;;;18.60;80.70;;;;;;5054784;28;20056;-74
2021/07/25 02:05:36;;;;;;;1.13;0.90;;;18.50;80.40;;;;;;5055798;28;20635;-74
2021/07/25 02:08:04;;;;;;;1.73;0.88;;;18.40;80.70;;;;;;5052773;28;20107;-74
2021/07/25 02:10:29;;;;;;;1.25;1.00;;;18.40;81.00;;;;;;5055807;28;20021;-74
2021/07/25 02:12:55;;;;;;;1.00;0.73;;;18.50;81.00;;;;;;5034541;28;20060;-75
2021/07/25 02:15:21;;;;;;;1.00;0.80;;;18.40;81.50;;;;;;5035618;28;20025;-74
2021/07/25 02:17:47;;;;;;;1.50;0.90;;;18.30;81.70;;;;;;5052618;28;20021;-74
2021/07/25 02:20:13;;;;;;;1.05;0.75;;;18.30;81.80;;;;;;5055623;28;20090;-74
2021/07/25 02:22:38;;;;;;;1.50;1.05;;;18.40;81.90;;;;;;5055519;28;20027;-74
2021/07/25 02:25:05;;;;;;;1.38;0.88;;;18.40;81.80;;;;;;5053770;28;20025;-74
2021/07/25 02:27:30;;;;;;;2.15;0.93;;;18.30;82.20;;;;;;5055417;28;20622;-74
2021/07/25 02:29:56;;;;;;;1.30;1.00;;;18.40;81.90;;;;;;5040327;28;20052;-74
2021/07/25 02:32:22;;;;;;;1.30;0.90;;;18.40;81.80;;;;;;5035227;28;20420;-74
2021/07/25 02:34:47;;;;;;;2.20;1.00;;;18.50;81.70;;;;;;5035627;28;20558;-74
2021/07/25 02:37:16;;;;;;;1.95;0.95;;;18.50;81.40;;;;;;5035435;28;20025;-74
2021/07/25 02:39:41;;;;;;;2.65;0.90;;;18.50;81.60;;;;;;5035350;28;20104;-74
2021/07/25 02:42:08;;;;;;;1.20;0.82;;;18.60;81.40;;;;;;5043555;28;20055;-74
2021/07/25 02:44:33;;;;;;;1.33;1.08;;;18.70;81.10;;;;;;5053830;28;20079;-74
2021/07/25 02:46:59;;;;;;;1.27;0.90;;;18.60;81.30;;;;;;5043161;28;20033;-74
2021/07/25 02:49:25;;;;;;;1.30;0.80;;;18.50;82.00;;;;;;5035351;28;20040;-74
2021/07/25 02:51:51;;;;;;;1.02;0.80;;;18.40;81.80;;;;;;5039823;28;20495;-74
2021/07/25 02:54:24;;;;;;;1.10;0.80;;;18.40;82.10;;;;;;5038021;28;20033;-74
2021/07/25 02:56:49;;;;;;;1.95;0.90;;;18.40;82.00;;;;;;5039366;28;20033;-74
2021/07/25 02:59:15;;;;;;;0.98;0.70;;;18.30;83.00;;;;;;5055005;28;20647;-74
2021/07/25 03:01:41;;;;;;;2.38;1.00;;;18.30;82.80;;;;;;5049117;28;20033;-74
2021/07/25 03:04:06;;;;;;;1.20;0.90;;;18.30;82.80;;;;;;5035390;28;20030;-74
2021/07/25 03:06:32;;;;;;;1.13;0.80;;;18.40;82.50;;;;;;5035238;28;20029;-74
2021/07/25 03:08:57;;;;;;;1.20;0.90;;;18.50;82.40;;;;;;5035013;28;20056;-75
2021/07/25 03:11:26;;;;;;;1.23;0.93;;;18.50;82.30;;;;;;5047264;28;20033;-74
2021/07/25 03:13:51;;;;;;;1.25;0.90;;;18.60;82.10;;;;;;5053590;28;20029;-75
2021/07/25 03:16:17;;;;;;;2.65;1.15;;;18.60;82.20;;;;;;5052916;28;20083;-74
2021/07/25 03:18:43;;;;;;;1.80;1.13;;;18.60;82.00;;;;;;5034041;28;20083;-74
2021/07/25 03:21:08;;;;;;;1.38;0.95;;;18.60;81.80;;;;;;5034998;28;20025;-74
2021/07/25 03:23:34;;;;;;;2.13;1.10;;;18.50;82.00;;;;;;5033941;28;20030;-73
2021/07/25 03:26:00;;;;;;;1.65;1.10;;;18.50;82.10;;;;;;5048477;28;20047;-74
2021/07/25 03:28:26;;;;;;;1.38;1.10;;;18.50;82.40;;;;;;5053437;28;20098;-74
2021/07/25 03:30:52;;;;;;;1.30;1.13;;;18.50;82.10;;;;;;5054963;28;20541;-74
2021/07/25 03:33:18;;;;;;;1.83;1.15;;;18.50;82.20;;;;;;5054813;28;20049;-74
2021/07/25 03:35:43;;;;;;;1.90;1.10;;;18.40;82.60;;;;;;5038692;28;20049;-74
2021/07/25 03:38:09;;;;;;;1.50;1.23;;;18.40;82.70;;;;;;5034793;28;20103;-74
2021/07/25 03:40:36;;;;;;;2.72;1.20;;;18.30;82.60;;;;;;5034971;28;20028;-74
2021/07/25 03:43:02;;;;;;;1.40;1.10;;;18.30;83.00;;;;;;5034796;28;20025;-74
2021/07/25 03:45:31;;;;;;;1.20;1.10;;;18.30;82.90;;;;;;5034735;28;20025;-75
2021/07/25 03:47:57;;;;;;;1.67;1.15;;;18.30;82.90;;;;;;5015093;28;20497;-74
2021/07/25 03:50:22;;;;;;;1.30;1.10;;;18.30;82.80;;;;;;5017806;28;20060;-74
2021/07/25 03:52:48;;;;;;;1.75;1.20;;;18.40;82.60;;;;;;5049523;28;20025;-75
2021/07/25 03:55:16;;;;;;;2.17;1.25;;;18.50;82.70;;;;;;5038324;28;20036;-74
2021/07/25 03:57:42;;;;;;;1.80;1.40;;;18.40;82.70;;;;;;5053303;28;20084;-74
2021/07/25 04:00:08;;;;;;;1.50;1.15;;;18.50;82.60;;;;;;5056744;28;20025;-74
2021/07/25 04:02:43;;;;;;;1.55;1.15;;;18.50;82.60;;;;;;5058250;28;20029;-74
2021/07/25 04:05:09;;;;;;;1.42;1.20;;;18.50;82.40;;;;;;5056942;28;20103;-74
2021/07/25 04:07:35;;;;;;;1.52;1.42;;;18.60;82.20;;;;;;5056668;28;20869;-74
2021/07/25 04:10:00;;;;;;;1.58;1.30;;;18.50;82.20;;;;;;5058047;28;20041;-74
2021/07/25 04:12:26;;;;;;;1.73;1.30;;;18.60;82.20;;;;;;5056500;28;20041;-74
2021/07/25 04:14:52;;;;;;;2.05;1.70;;;18.60;82.30;;;;;;5057859;28;20021;-74
2021/07/25 04:17:17;;;;;;;2.55;1.10;;;18.50;82.40;;;;;;5056583;28;20178;-74
2021/07/25 04:19:45;;;;;;;1.52;1.42;;;18.60;82.30;;;;;;5056536;28;20025;-75
2021/07/25 04:22:11;;;;;;;1.95;1.70;;;18.60;82.30;;;;;;5018237;28;20025;-74
2021/07/25 04:24:37;;;;;;;2.15;1.58;;;18.50;82.40;;;;;;5018046;28;20056;-75
2021/07/25 04:27:03;;;;;;;2.25;1.67;;;18.60;82.50;;;;;;5036572;28;20119;-74
2021/07/25 04:29:29;;;;;;;1.92;1.75;;;18.60;82.40;;;;;;5056174;28;20021;-74
2021/07/25 04:31:55;;;;;;;3.20;1.73;;;18.60;82.20;;;;;;5055438;28;20044;-74
2021/07/25 04:34:21;;;;;;;1.70;1.60;;;18.70;82.00;;;;;;5056633;28;20067;-74
2021/07/25 04:36:56;;;;;;;2.25;1.90;;;18.70;82.20;;;;;;5056253;28;20669;-74
2021/07/25 04:39:22;;;;;;;2.60;2.00;;;18.60;82.10;;;;;;5054492;28;20651;-74
2021/07/25 04:41:55;;;;;;;2.35;2.15;;;18.60;82.30;;;;;;5056326;28;20131;-74
2021/07/25 04:44:35;;;;;;;2.78;1.70;;;18.60;82.10;;;;;;5055903;28;20637;-74
2021/07/25 04:47:02;;;;;;;;;;;18.60;82.00;;;;;;5044341;28;20029;-74
2021/07/25 04:49:37;;;;;;;1.70;1.60;;;18.60;82.10;;;;;;5053709;28;19909;-74
2021/07/25 04:52:03;;;;;;;2.03;1.83;;;18.70;81.90;;;;;;5055954;28;20040;-74
2021/07/25 04:54:35;;;;;;;2.28;1.80;;;18.60;81.90;;;;;;5038364;28;20033;-74
2021/07/25 04:57:05;;;;;;;2.00;1.80;;;18.60;81.70;;;;;;5035367;28;20028;-74
2021/07/25 04:59:46;;;;;;;1.92;1.67;;;18.70;81.50;;;;;;5057304;28;20029;-75
2021/07/25 05:02:14;;;;;;;2.38;1.70;;;18.60;81.90;;;;;;5055715;28;20025;-74
2021/07/25 05:04:40;;;;;;;2.00;1.80;;;18.60;81.70;;;;;;5045890;28;20022;-74
2021/07/25 05:07:11;;;;;;;2.65;1.98;;;18.60;81.70;;;;;;5030497;28;20088;-74
2021/07/25 05:09:38;;;;;;;1.95;1.60;;;18.70;81.50;;;;;;5017189;28;20439;-74
2021/07/25 05:12:13;;;;;;;2.20;1.67;;;18.60;81.80;;;;;;5016849;28;20099;-74
2021/07/25 05:14:58;;;;;;;1.70;1.60;;;18.70;81.80;;;;;;5015920;28;20065;-74
2021/07/25 05:17:41;;;;;;;2.88;1.70;;;18.70;81.50;;;;;;5048290;28;20025;-74
2021/07/25 05:20:14;;;;;;;1.80;1.60;;;18.80;81.40;;;;;;5052976;28;20575;-74
2021/07/25 05:22:55;;;;;;;1.92;1.83;;;18.80;81.50;;;;;;5036991;28;20030;-75
2021/07/25 05:25:22;;;;;;;2.78;1.50;;;18.80;81.60;;;;;;5036752;28;20029;-74
2021/07/25 05:27:50;;;;;;;2.28;1.75;;;18.80;81.10;;;;;;5036543;28;20025;-75
2021/07/25 05:30:25;;;;;;;3.50;1.70;;;18.80;81.10;;;;;;5047311;28;20561;-75
2021/07/25 05:32:51;;;;;;;2.20;2.00;;;18.90;80.90;;;;;;5055129;28;20133;-75
2021/07/25 05:35:17;;;;;;;1.90;1.70;;;18.90;80.60;;;;;;5056440;28;20078;-76
2021/07/25 05:37:43;;;;;;;2.30;1.80;;;18.90;80.60;;;;;;5056533;28;20017;-76
2021/07/25 05:40:11;;;;;;;2.10;1.60;;;18.90;80.70;;;;;;5042818;28;20036;-76
2021/07/25 05:42:38;;;;;;;2.17;1.70;;;18.90;80.70;;;;;;5036385;28;20018;-76
2021/07/25 05:45:10;;;;;;;2.97;1.90;;;18.90;80.70;;;;;;5052005;28;20033;-77
2021/07/25 05:47:36;;;;;;;2.17;1.70;;;19.00;80.50;;;;;;5039074;28;20103;-76
2021/07/25 05:50:03;;;;;;;1.75;1.65;;;18.90;80.80;;;;;;5036239;28;20036;-77
2021/07/25 05:52:59;;;;;;;1.80;1.70;;;18.90;80.50;;;;;;5043369;28;20024;-76
2021/07/25 05:55:26;;;;;;;2.63;1.98;;;19.00;80.50;;;;;;5036181;28;20488;-76
2021/07/25 05:57:52;;;;;;;3.22;2.22;;;19.00;80.50;;;;;;5036152;28;20469;-76
2021/07/25 06:00:19;;;;;;;2.10;1.75;;;19.00;80.50;;;;;;5046480;28;20025;-76
2021/07/25 06:02:54;;;;;;;2.92;2.10;;;19.00;79.90;;;;;;5049723;28;20029;-76
2021/07/25 06:05:21;;;;;;;2.92;1.70;;;19.00;80.40;;;;;;5007907;28;20030;-76
2021/07/25 06:07:47;;;;;;;4.20;2.20;;;19.00;80.30;;;;;;5035704;28;20037;-76
2021/07/25 06:10:13;;;;;;;2.50;1.80;;;18.90;80.30;;;;;;5039820;28;20695;-77
2021/07/25 06:12:39;;;;;;;1.83;1.63;;;18.90;80.50;;;;;;5031285;28;20033;-76
2021/07/25 06:15:05;;;;;;;2.17;1.77;;;19.00;80.50;;;;;;5046693;28;20029;-75
2021/07/25 06:17:31;;;;;;;2.05;1.70;;;19.00;80.50;;;;;;5028712;28;20037;-75
2021/07/25 06:19:57;;;;;;;3.47;2.20;;;19.10;80.40;;;;;;5034211;28;20021;-77
2021/07/25 06:22:22;;;;;;;1.70;1.50;;;19.20;80.30;;;;;;5032232;28;20029;-75
2021/07/25 06:24:48;;;;;;;2.05;1.85;;;19.20;80.20;;;;;;5034902;28;20037;-75
2021/07/25 06:27:14;;;;;;;1.85;1.70;;;19.20;80.20;;;;;;5035149;28;20061;-75
2021/07/25 06:29:40;;;;;;;1.88;1.67;;;19.20;80.10;;;;;;5030024;28;20036;-75
2021/07/25 06:32:08;;;;;;;2.13;1.55;;;19.20;80.10;;;;;;5035128;28;20053;-74
2021/07/25 06:34:49;;;;;;;2.65;1.85;;;19.20;80.00;;;;;;5061100;28;20384;-75
2021/07/25 06:37:15;;;;;;;1.75;1.63;;;19.20;80.10;;;;;;5040002;28;20393;-75
2021/07/25 06:39:40;;;;;;;2.13;1.52;;;19.20;80.20;;;;;;5045602;28;20114;-77
2021/07/25 06:42:08;;;;;;;2.20;1.80;;;19.20;80.00;;;;;;5039622;28;20021;-76
2021/07/25 06:44:34;;;;;;;1.95;1.80;;;19.20;80.10;;;;;;5040774;28;20123;-75
2021/07/25 06:47:00;;;;;;;2.47;1.58;;;19.30;80.10;;;;;;5040527;28;20041;-80
2021/07/25 06:49:25;;;;;;;3.25;1.80;;;19.30;80.00;;;;;;5046977;28;20037;-74
2021/07/25 06:51:51;;;;;;;2.10;1.60;;;19.30;80.10;;;;;;5046180;28;20553;-76
2021/07/25 06:54:16;;;;;;;2.60;1.58;;;19.40;80.00;;;;;;5043424;28;20573;-75
2021/07/25 06:56:43;;;;;;;2.40;1.60;;;19.50;80.00;;;;;;5045890;28;20613;-76
2021/07/25 06:59:09;;;;;;;2.00;1.60;;;19.50;80.10;;;;;;5037876;28;20029;-77
2021/07/25 07:01:35;;;;;;;2.28;1.75;;;19.60;79.70;;;;;;5049226;28;20419;-79
2021/07/25 07:04:00;;;;;;;2.15;1.75;;;19.50;80.20;;;;;;5041776;28;20018;-78
2021/07/25 07:06:26;;;;;;;1.85;1.63;;;19.40;80.30;;;;;;5044383;28;20037;-77
2021/07/25 07:08:52;;;;;;;2.13;1.88;;;19.50;80.40;;;;;;5038199;28;20033;-77
2021/07/25 07:11:17;;;;;;;2.08;1.83;;;19.50;80.50;;;;;;5040641;28;20425;-77
2021/07/25 07:13:43;;;;;;;1.92;1.83;;;19.50;80.40;;;;;;5045600;28;20030;-81
2021/07/25 07:16:09;;;;;;;2.03;1.70;;;19.60;80.30;;;;;;5047850;28;20029;-79
2021/07/25 07:18:35;;;;;;;3.17;1.80;;;19.70;80.30;;;;;;5048130;28;20021;-76
2021/07/25 07:21:00;;;;;;;1.98;1.73;;;19.90;80.10;;;;;;5045830;28;20091;-77
2021/07/25 07:23:26;;;;;;;2.25;1.60;;;20.70;78.30;;;;;;5051358;28;20100;-76
2021/07/25 07:25:53;;;;;;;1.63;1.38;;;21.00;76.50;;;;;;5051578;28;20130;-77
2021/07/25 07:28:21;;;;;;;2.05;1.50;;;20.90;76.70;;;;;;5047079;28;20035;-76
2021/07/25 07:30:47;;;;;;;2.92;1.50;;;20.80;77.10;;;;;;5038917;22;20061;-76
2021/07/25 07:35:41;;;;;;;2.00;1.55;;;20.60;77.20;;;;;;5044908;23;20601;-76
2021/07/25 07:38:09;;;;;;;1.73;1.55;;;20.60;77.70;;;;;;5053694;28;20051;-76
2021/07/25 07:40:36;;;;;;;2.08;1.50;;;20.50;77.70;;;;;;5045200;28;20041;-76
2021/07/25 07:43:04;;;;;;;1.70;1.50;;;20.90;77.40;;;;;;5053518;28;20025;-76
2021/07/25 07:45:30;;;;;;;2.10;1.25;;;20.80;76.70;;;;;;5034171;28;20083;-77
2021/07/25 07:47:56;;;;;;;1.40;1.20;;;21.00;76.50;;;;;;5030166;28;20365;-77
2021/07/25 07:50:22;;;;;;;2.33;1.50;;;21.30;75.90;;;;;;5035749;28;20030;-76
2021/07/25 07:52:48;;;;;;;1.20;1.00;;;22.20;73.90;;;;;;5032084;28;20037;-77
2021/07/25 07:55:15;;;;;;;1.80;1.10;;;22.80;71.70;;;;;;5032969;28;20100;-76
2021/07/25 07:57:41;;;;;;;1.48;1.15;;;22.80;71.70;;;;;;5037179;28;20025;-76
2021/07/25 08:00:08;;;;;;;1.40;1.00;;;22.30;72.20;;;;;;5036224;28;20030;-76
2021/07/25 08:02:34;;;;;;;1.40;1.30;;;22.00;73.60;;;;;;5032417;28;20030;-76
2021/07/25 08:05:01;;;;;;;2.28;1.10;;;22.30;73.20;;;;;;5037970;28;20024;-76
2021/07/25 08:07:27;;;;;;;1.42;1.13;;;22.50;73.00;;;;;;5037913;28;20083;-77
2021/07/25 08:09:53;;;;;;;1.45;1.08;;;23.00;71.90;;;;;;5035976;28;20030;-77
2021/07/25 08:12:18;;;;;;;1.23;0.90;;;22.80;71.10;;;;;;5036177;28;20025;-77
2021/07/25 08:14:44;;;;;;;1.23;0.77;;;22.70;72.10;;;;;;5033945;28;20472;-77
2021/07/25 08:17:10;;;;;;;1.55;1.00;;;22.90;71.90;;;;;;5038048;28;20048;-80
2021/07/25 08:19:35;;;;;;;1.33;0.90;;;22.40;71.80;;;;;;5030695;28;20037;-77
2021/07/25 08:22:02;;;;;;;1.75;1.10;;;22.00;72.50;;;;;;5036153;28;20021;-76
2021/07/25 08:24:28;;;;;;;1.40;1.00;;;21.90;73.30;;;;;;5031812;28;20021;-77
2021/07/25 08:26:54;;;;;;;1.92;1.33;;;21.90;73.70;;;;;;5035720;28;20594;-76
2021/07/25 08:29:19;;;;;;;1.23;1.00;;;21.90;73.60;;;;;;5036584;28;20113;-76
2021/07/25 08:31:45;;;;;;;1.40;0.90;;;21.60;74.50;;;;;;5033352;28;20456;-77
2021/07/25 08:34:11;;;;;;;1.65;1.02;;;21.40;74.70;;;;;;5037159;28;20092;-77
2021/07/25 08:36:37;;;;;;;1.63;1.02;;;21.30;75.10;;;;;;5037136;28;20113;-76
2021/07/25 08:39:03;;;;;;;1.13;0.93;;;21.30;75.30;;;;;;5034695;28;20133;-80
2021/07/25 08:41:52;;;;;;;1.50;1.17;;;21.20;75.50;;;;;;5037304;28;20093;-75
2021/07/25 08:44:33;;;;;;;1.60;1.13;;;21.20;75.80;;;;;;5035144;28;20033;-76
2021/07/25 08:47:00;;;;;;;1.75;1.10;;;21.30;76.00;;;;;;5036075;28;20030;-75
2021/07/25 08:49:59;;;;;;;1.33;1.10;;;21.50;75.20;;;;;;5037079;28;20024;-75
2021/07/25 08:52:30;;;;;;;1.17;1.00;;;21.60;74.40;;;;;;5031563;28;20029;-77
2021/07/25 08:54:57;;;;;;;1.67;1.10;;;21.50;74.80;;;;;;5036941;28;20056;-75
2021/07/25 08:57:32;;;;;;;1.52;1.00;;;21.70;74.20;;;;;;5034011;28;20033;-75
2021/07/25 08:59:58;;;;;;;1.00;0.90;;;21.90;74.50;;;;;;5035911;28;20079;-77
2021/07/25 09:02:25;;;;;;;1.52;0.90;;;22.80;72.70;;;;;;5036241;28;20014;-76
2021/07/25 09:04:52;;;;;;;1.27;0.80;;;23.60;68.90;;;;;;5036236;28;20029;-75
2021/07/25 09:07:20;;;;;;;1.27;0.70;;;24.30;65.90;;;;;;5032271;28;20029;-75
2021/07/25 09:09:48;;;;;;;1.35;0.90;;;24.20;67.40;;;;;;5035549;28;20395;-75
2021/07/25 09:12:17;;;;;;;1.00;0.70;;;23.90;68.10;;;;;;5034352;28;20491;-75
2021/07/25 09:14:45;;;;;;;0.90;0.70;;;23.70;68.00;;;;;;5034669;28;20527;-73
2021/07/25 09:17:11;;;;;;;0.93;0.77;;;23.70;68.70;;;;;;5036705;28;20053;-75
2021/07/25 09:20:32;;;;;;;1.40;0.80;;;23.80;67.70;;;;;;5035969;28;20029;-76
2021/07/25 09:23:11;;;;;;;1.20;0.75;;;23.70;67.70;;;;;;5035640;28;20054;-76
2021/07/25 09:25:46;;;;;;;1.00;0.80;;;23.60;68.40;;;;;;5038243;28;20105;-74
2021/07/25 09:28:30;;;;;;;1.60;0.77;;;23.50;68.40;;;;;;5034706;28;20065;-74
2021/07/25 09:30:55;;;;;;;1.52;0.85;;;23.50;67.50;;;;;;5034553;28;20040;-74
2021/07/25 09:33:33;;;;;;;0.98;0.80;;;23.40;67.20;;;;;;5033525;28;20021;-76
2021/07/25 09:36:09;;;;;;;0.85;0.70;;;23.50;66.50;;;;;;5032928;28;20038;-75
2021/07/25 09:38:35;;;;;;;1.10;0.80;;;23.50;66.40;;;;;;5035615;28;20100;-76
2021/07/25 09:41:01;;;;;;;1.20;0.82;;;23.60;67.30;;;;;;5032097;28;20037;-80
2021/07/25 09:43:27;;;;;;;0.90;0.63;;;23.80;66.70;;;;;;5034078;28;20029;-76
2021/07/25 09:45:55;;;;;;;1.15;0.65;;;23.90;65.00;;;;;;5035548;28;20025;-80
2021/07/25 09:48:25;;;;;;;1.42;0.70;;;24.10;65.40;;;;;;5030804;28;20037;-78
2021/07/25 09:50:53;;;;;;;1.30;0.82;;;24.20;64.70;;;;;;5035663;28;20036;-79
2021/07/25 09:53:19;;;;;;;0.80;0.70;;;24.20;63.80;;;;;;5034947;28;20029;-82
2021/07/25 09:55:45;;;;;;;0.95;0.63;;;24.20;64.10;;;;;;5034004;28;20026;-82
2021/07/25 09:58:11;;;;;;;1.00;0.73;;;24.40;63.80;;;;;;5035983;28;20108;-82
2021/07/25 10:00:41;;;;;;;0.82;0.60;;;25.40;60.30;;;;;;5032673;28;20093;-80
2021/07/25 10:03:23;;;;;;;1.77;0.60;;;25.70;58.90;;;;;;5036038;28;20033;-82
2021/07/25 10:05:52;;;;;;;1.05;0.80;;;26.80;56.90;;;;;;5032462;28;20476;-79
2021/07/25 10:08:21;;;;;;;0.82;0.55;;;27.70;54.80;;;;;;5026670;28;20029;-82
2021/07/25 10:10:51;;;;;;;0.70;0.50;;;28.70;52.60;;;;;;5032672;28;20496;-86
2021/07/25 10:13:22;;;;;;;0.75;0.40;;;28.80;52.10;;;;;;5022775;28;20026;-88
2021/07/25 10:15:58;;;;;;;1.00;0.60;;;27.90;52.80;;;;;;5024555;28;20034;-84
2021/07/25 10:18:26;;;;;;;0.73;0.50;;;27.50;53.20;;;;;;5020295;28;20018;-78
2021/07/25 10:20:57;;;;;;;0.82;0.50;;;26.80;55.30;;;;;;5027536;28;20036;-80
2021/07/25 10:23:32;;;;;;;1.52;0.60;;;26.20;57.30;;;;;;5024914;28;20034;-80
2021/07/25 10:26:01;;;;;;;0.98;0.68;;;25.60;57.10;;;;;;5026389;28;20023;-76
2021/07/25 10:28:30;;;;;;;1.00;0.70;;;25.30;59.10;;;;;;5025855;28;20037;-79
2021/07/25 10:30:58;;;;;;;1.25;0.77;;;25.30;59.00;;;;;;5030614;28;20043;-84
2021/07/25 10:33:24;;;;;;;0.93;0.60;;;25.20;59.10;;;;;;5031909;28;20033;-83
2021/07/25 10:35:52;;;;;;;0.70;0.50;;;25.30;59.30;;;;;;5022918;28;20056;-87
2021/07/25 10:38:18;;;;;;;1.00;0.60;;;25.40;59.30;;;;;;5032382;28;20064;-91
2021/07/25 10:40:45;;;;;;;0.68;0.45;;;25.80;57.70;;;;;;5030992;28;20025;-84
2021/07/25 10:43:13;;;;;;;1.17;0.68;;;26.60;56.80;;;;;;5030874;28;20029;-84
2021/07/25 10:45:39;;;;;;;0.50;0.30;;;26.90;55.00;;;;;;5025429;28;20033;-79
2021/07/25 10:48:15;;;;;;;1.17;0.60;;;27.00;54.70;;;;;;5031010;28;20033;-80
2021/07/25 10:50:41;;;;;;;0.60;0.40;;;27.00;55.00;;;;;;5026934;28;20037;-84
2021/07/25 10:53:07;;;;;;;0.47;0.38;;;27.00;53.10;;;;;;5040038;28;20037;-81
2021/07/25 10:55:41;;;;;;;0.77;0.40;;;27.00;52.80;;;;;;5031285;28;20092;-79
2021/07/25 10:58:08;;;;;;;1.00;0.40;;;27.20;54.80;;;;;;5032246;28;20051;-81
2021/07/25 11:00:53;;;;;;;1.05;0.40;;;26.90;52.90;;;;;;5026865;28;20026;-84
2021/07/25 11:03:40;;;;;;;0.85;0.40;;;27.00;54.60;;;;;;5026844;28;20104;-82
2021/07/25 11:06:06;;;;;;;0.60;0.40;;;26.80;54.10;;;;;;5026309;28;20046;-85
2021/07/25 11:08:37;;;;;;;1.15;0.50;;;26.80;55.70;;;;;;5019055;28;20047;-83
2021/07/25 11:11:39;;;;;;;0.57;0.30;;;26.90;55.00;;;;;;5029034;28;20040;-78
2021/07/25 11:14:07;;;;;;;0.80;0.40;;;26.60;54.60;;;;;;5025361;28;20037;-81
2021/07/25 11:16:32;;;;;;;0.80;0.40;;;26.30;55.20;;;;;;5022008;28;20036;-81
2021/07/25 11:19:04;;;;;;;0.88;0.50;;;25.90;56.90;;;;;;5026407;28;20018;-86
2021/07/25 11:21:31;;;;;;;0.75;0.40;;;25.70;58.20;;;;;;5036251;28;20403;-83
2021/07/25 11:23:57;;;;;;;0.85;0.47;;;25.70;58.70;;;;;;5037123;28;20496;-84
2021/07/25 11:26:35;;;;;;;0.70;0.40;;;25.60;57.10;;;;;;5036768;28;20064;-84
2021/07/25 11:29:04;;;;;;;0.82;0.50;;;25.60;56.50;;;;;;5025969;28;20036;-84
2021/07/25 11:31:33;;;;;;;0.57;0.40;;;25.60;56.20;;;;;;5036410;28;20081;-83
2021/07/25 11:33:59;;;;;;;0.95;0.40;;;25.60;57.40;;;;;;5030550;28;20068;-86
2021/07/25 11:36:25;;;;;;;0.60;0.30;;;25.70;57.60;;;;;;5038182;28;20065;-86
2021/07/25 11:38:59;;;;;;;0.77;0.40;;;25.80;56.90;;;;;;5036847;28;20056;-89
2021/07/25 11:41:45;;;;;;;0.70;0.45;;;26.00;56.60;;;;;;5015869;28;20560;-88
2021/07/25 11:44:12;;;;;;;0.65;0.43;;;26.10;57.30;;;;;;5026815;28;20085;-87
2021/07/25 11:46:45;;;;;;;0.80;0.57;;;26.30;58.60;;;;;;5031843;28;20108;-86
2021/07/25 11:49:17;;;;;;;0.52;0.40;;;25.90;57.60;;;;;;5028840;28;20089;-85
2021/07/25 11:52:01;;;;;;;0.80;0.40;;;25.60;57.50;;;;;;5027080;28;20033;-86
2021/07/25 11:54:34;;;;;;;0.70;0.40;;;25.60;59.10;;;;;;5027916;28;20431;-85
2021/07/25 11:57:12;;;;;;;0.85;0.40;;;25.60;56.50;;;;;;5024859;28;20026;-86
2021/07/25 12:00:03;;;;;;;1.02;0.30;;;25.80;56.10;;;;;;5026421;28;20025;-87
2021/07/25 12:02:31;;;;;;;0.70;0.40;;;26.00;56.90;;;;;;5025169;28;20053;-86
2021/07/25 12:04:57;;;;;;;0.80;0.40;;;26.10;57.30;;;;;;5026722;28;20036;-86
2021/07/25 12:07:34;;;;;;;0.75;0.35;;;26.30;56.30;;;;;;5026604;28;20045;-86
2021/07/25 12:10:01;;;;;;;0.40;0.32;;;26.10;55.50;;;;;;5026577;28;20092;-86
2021/07/25 12:12:29;;;;;;;0.60;0.40;;;26.00;55.60;;;;;;5027030;28;20086;-88
2021/07/25 12:14:58;;;;;;;0.60;0.30;;;25.80;55.80;;;;;;5025461;28;20025;-86
2021/07/25 12:17:38;;;;;;;0.40;0.27;;;25.80;54.40;;;;;;5024136;28;20036;-87
2021/07/25 12:20:12;;;;;;;0.80;0.40;;;26.00;55.90;;;;;;5017796;28;20033;-85
2021/07/25 12:22:48;;;;;;;0.40;0.30;;;26.30;55.60;;;;;;5022675;28;20022;-87
2021/07/25 12:25:14;;;;;;;0.40;0.30;;;26.30;55.30;;;;;;5022418;28;20028;-88
2021/07/25 12:27:39;;;;;;;0.50;0.30;;;26.30;54.80;;;;;;5037316;28;20079;-87
2021/07/25 12:30:19;;;;;;;0.43;0.30;;;26.20;55.10;;;;;;5037530;28;20112;-88
2021/07/25 12:32:46;;;;;;;0.40;0.20;;;26.10;53.90;;;;;;5027175;28;20025;-93
2021/07/25 12:35:11;;;;;;;0.40;0.28;;;25.80;56.20;;;;;;5034321;28;20053;-85
2021/07/25 12:37:47;;;;;;;0.57;0.35;;;25.60;56.50;;;;;;5020009;28;20022;-88
2021/07/25 12:40:15;;;;;;;0.70;0.30;;;25.50;55.10;;;;;;5032521;28;20575;-84
2021/07/25 12:42:48;;;;;;;0.65;0.30;;;25.70;56.10;;;;;;5032131;28;20030;-86
2021/07/25 12:45:31;;;;;;;0.40;0.30;;;25.90;55.70;;;;;;5027983;28;20025;-85
2021/07/25 12:48:17;;;;;;;0.50;0.30;;;26.20;55.20;;;;;;5027034;28;20076;-86
2021/07/25 12:50:58;;;;;;;0.60;0.40;;;26.20;54.90;;;;;;5027384;28;20029;-85
2021/07/25 12:53:38;;;;;;;0.60;0.30;;;26.40;55.30;;;;;;5039192;28;20021;-85
2021/07/25 12:56:14;;;;;;;0.45;0.20;;;26.60;53.90;;;;;;5035012;28;20025;-85
2021/07/25 12:58:45;;;;;;;1.50;0.30;;;26.90;53.10;;;;;;5035309;28;20021;-86
2021/07/25 13:03:44;;;;;;;0.70;0.25;;;26.90;52.60;;;;;;5031933;28;20045;-85